createdAt,value
2023-04-19T00:00:32.736Z,8.40
2023-04-19T00:03:01.034Z,8.50
2023-04-19T00:05:29.234Z,8.60
2023-04-19T00:07:57.304Z,8.60
2023-04-19T00:10:25.205Z,8.70
2023-04-19T00:12:54.403Z,8.70
2023-04-19T00:15:22.251Z,8.70
2023-04-19T00:17:50.183Z,8.60
2023-04-19T00:20:18.122Z,8.80
2023-04-19T00:22:45.969Z,8.90
2023-04-19T00:25:13.790Z,9.00
2023-04-19T00:27:41.635Z,9.00
2023-04-19T00:30:11.944Z,8.80
2023-04-19T00:32:39.878Z,8.80
2023-04-19T00:35:08.446Z,8.70
2023-04-19T00:37:36.365Z,8.80
2023-04-19T00:40:05.400Z,8.80
2023-04-19T00:42:33.235Z,8.60
2023-04-19T00:45:01.061Z,8.60
2023-04-19T00:47:30.279Z,8.70
2023-04-19T00:49:58.127Z,8.80
2023-04-19T00:52:25.944Z,8.80
2023-04-19T00:54:53.769Z,8.90
2023-04-19T00:57:21.646Z,8.90
2023-04-19T00:59:49.507Z,8.70
2023-04-19T01:02:17.578Z,8.60
2023-04-19T01:04:46.989Z,8.70
2023-04-19T01:07:14.825Z,8.70
2023-04-19T01:09:44.080Z,8.70
2023-04-19T01:12:11.952Z,8.70
2023-04-19T01:14:39.750Z,8.60
2023-04-19T01:17:07.627Z,8.60
2023-04-19T01:19:36.404Z,8.70
2023-04-19T01:22:06.482Z,8.60
2023-04-19T01:24:35.729Z,8.50
2023-04-19T01:27:03.545Z,8.50
2023-04-19T01:29:31.356Z,8.50
2023-04-19T01:31:59.139Z,8.60
2023-04-19T01:34:27.004Z,8.60
2023-04-19T01:36:54.815Z,8.50
2023-04-19T01:39:22.691Z,8.60
2023-04-19T01:41:51.880Z,8.70
2023-04-19T01:44:19.698Z,8.60
2023-04-19T01:46:47.535Z,8.60
2023-04-19T01:49:16.106Z,8.50
2023-04-19T01:51:43.897Z,8.60
2023-04-19T01:54:11.716Z,8.60
2023-04-19T01:56:39.520Z,8.50
2023-04-19T01:59:08.704Z,8.40
2023-04-19T02:01:36.502Z,8.40
2023-04-19T02:04:04.583Z,8.50
2023-04-19T02:06:32.754Z,8.50
2023-04-19T02:09:00.575Z,8.40
2023-04-19T02:11:28.390Z,8.40
2023-04-19T02:13:56.325Z,8.50
2023-04-19T02:16:47.091Z,8.50
2023-04-19T02:19:14.872Z,8.50
2023-04-19T02:21:42.612Z,8.50
2023-04-19T02:24:10.496Z,8.50
2023-04-19T02:26:38.298Z,8.40
2023-04-19T02:29:07.030Z,8.30
2023-04-19T02:31:35.003Z,8.20
2023-04-19T02:34:04.184Z,8.20
2023-04-19T02:36:32.023Z,8.20
2023-04-19T02:39:00.302Z,8.20
2023-04-19T02:41:28.098Z,8.20
2023-04-19T02:43:56.242Z,8.30
2023-04-19T02:46:24.238Z,8.30
2023-04-19T02:48:52.135Z,8.20
2023-04-19T02:51:21.304Z,8.20
2023-04-19T02:53:49.148Z,8.20
2023-04-19T02:56:16.955Z,8.20
2023-04-19T02:58:44.758Z,8.20
2023-04-19T03:01:12.722Z,8.20
2023-04-19T03:03:40.687Z,8.10
2023-04-19T03:06:09.087Z,8.20
2023-04-19T03:08:38.278Z,8.20
2023-04-19T03:11:06.740Z,8.30
2023-04-19T03:13:34.586Z,8.30
2023-04-19T03:16:02.405Z,8.20
2023-04-19T03:18:30.668Z,8.20
2023-04-19T03:20:58.483Z,8.30
2023-04-19T03:23:26.840Z,8.20
2023-04-19T03:25:56.297Z,8.20
2023-04-19T03:28:24.118Z,8.30
2023-04-19T03:30:52.147Z,8.30
2023-04-19T03:33:20.030Z,8.30
2023-04-19T03:35:47.885Z,8.30
2023-04-19T03:38:15.679Z,8.30
2023-04-19T03:40:43.632Z,8.30
2023-04-19T03:43:12.848Z,8.30
2023-04-19T03:45:40.679Z,8.30
2023-04-19T03:48:08.514Z,8.30
2023-04-19T03:50:36.410Z,8.20
2023-04-19T03:53:04.951Z,8.20
2023-04-19T03:55:32.766Z,8.30
2023-04-19T03:58:00.754Z,8.20
2023-04-19T04:00:29.916Z,8.10
2023-04-19T04:02:57.815Z,8.20
2023-04-19T04:05:28.071Z,8.10
2023-04-19T04:07:56.337Z,8.00
2023-04-19T04:10:24.170Z,8.20
2023-04-19T04:12:51.978Z,8.20
2023-04-19T04:15:19.788Z,8.10
2023-04-19T04:17:49.129Z,8.10
2023-04-19T04:20:17.052Z,8.00
2023-04-19T04:22:46.152Z,8.10
2023-04-19T04:25:15.794Z,8.10
2023-04-19T04:27:44.048Z,8.10
2023-04-19T04:30:12.276Z,8.20
2023-04-19T04:32:41.057Z,8.10
2023-04-19T04:35:12.175Z,8.20
2023-04-19T04:37:40.253Z,8.30
2023-04-19T04:40:09.887Z,8.40
2023-04-19T04:42:38.280Z,8.30
2023-04-19T04:45:06.857Z,8.20
2023-04-19T04:47:34.953Z,8.30
2023-04-19T04:50:03.429Z,8.00
2023-04-19T04:52:32.629Z,8.10
2023-04-19T04:55:00.458Z,8.20
2023-04-19T04:57:28.325Z,8.20
2023-04-19T04:59:56.414Z,8.20
2023-04-19T05:02:25.671Z,8.20
2023-04-19T05:04:53.627Z,8.30
2023-04-19T05:07:21.425Z,8.10
2023-04-19T05:09:50.577Z,8.20
2023-04-19T05:12:18.428Z,8.30
2023-04-19T05:14:46.236Z,8.30
2023-04-19T05:17:14.068Z,8.30
2023-04-19T05:19:41.900Z,8.30
2023-04-19T05:22:09.716Z,8.30
2023-04-19T05:24:37.580Z,8.40
2023-04-19T05:27:06.775Z,8.30
2023-04-19T05:29:34.583Z,8.30
2023-04-19T05:32:02.375Z,8.30
2023-04-19T05:34:30.462Z,8.40
2023-04-19T05:36:58.245Z,8.30
2023-04-19T05:39:26.140Z,8.30
2023-04-19T05:41:53.955Z,8.30
2023-04-19T05:44:23.112Z,8.40
2023-04-19T05:46:50.929Z,8.40
2023-04-19T05:49:18.724Z,8.40
2023-04-19T05:51:46.628Z,8.40
2023-04-19T05:54:14.845Z,8.20
2023-04-19T05:56:43.003Z,8.20
2023-04-19T05:59:11.610Z,8.20
2023-04-19T06:01:40.931Z,8.20
2023-04-19T06:04:08.927Z,8.20
2023-04-19T06:06:38.113Z,8.30
2023-04-19T06:09:07.048Z,8.30
2023-04-19T06:11:39.329Z,8.30
2023-04-19T06:14:15.323Z,8.30
2023-04-19T06:16:44.719Z,8.40
2023-04-19T06:19:12.577Z,8.40
2023-04-19T06:21:40.419Z,8.50
2023-04-19T06:24:08.614Z,8.40
2023-04-19T06:26:36.450Z,8.50
2023-04-19T06:29:04.280Z,8.40
2023-04-19T06:31:32.126Z,8.50
2023-04-19T06:34:01.753Z,8.60
2023-04-19T06:36:29.859Z,8.60
2023-04-19T06:38:57.661Z,9.00
2023-04-19T06:41:25.976Z,8.90
2023-04-19T06:43:53.765Z,8.90
2023-04-19T06:46:21.778Z,8.80
2023-04-19T06:48:49.606Z,8.80
2023-04-19T06:51:18.785Z,8.80
2023-04-19T06:53:46.586Z,8.80
2023-04-19T06:56:15.053Z,8.70
2023-04-19T06:58:42.846Z,8.70
2023-04-19T07:01:10.833Z,8.70
2023-04-19T07:03:38.823Z,8.70
2023-04-19T07:06:06.865Z,8.80
2023-04-19T07:08:48.636Z,8.80
2023-04-19T07:15:05.503Z,8.80
2023-04-19T07:17:35.047Z,8.80
2023-04-19T07:20:04.799Z,8.80
2023-04-19T07:22:32.610Z,8.90
2023-04-19T07:25:01.793Z,8.90
2023-04-19T07:27:32.240Z,8.80
2023-04-19T07:30:00.147Z,8.80
2023-04-19T07:32:28.053Z,8.90
2023-04-19T07:34:55.885Z,8.80
2023-04-19T07:37:23.721Z,8.80
2023-04-19T07:39:51.538Z,8.80
2023-04-19T07:42:23.687Z,8.70
2023-04-19T07:44:51.773Z,8.80
2023-04-19T07:47:19.623Z,8.90
2023-04-19T07:49:47.421Z,9.00
2023-04-19T07:52:15.275Z,9.00
2023-04-19T07:54:43.127Z,9.00
2023-04-19T07:57:10.999Z,9.40
2023-04-19T07:59:40.211Z,9.50
2023-04-19T08:02:08.170Z,9.50
2023-04-19T08:04:37.419Z,9.30
2023-04-19T08:07:05.445Z,9.10
2023-04-19T08:09:34.818Z,9.10
2023-04-19T08:12:02.658Z,8.90
2023-04-19T08:14:37.522Z,9.10
2023-04-19T08:17:25.720Z,8.90
2023-04-19T08:19:56.133Z,8.90
2023-04-19T08:22:23.992Z,9.00
2023-04-19T08:24:52.447Z,9.00
2023-04-19T08:27:20.467Z,8.80
2023-04-19T08:29:48.339Z,8.90
2023-04-19T08:32:17.573Z,9.10
2023-04-19T08:34:46.271Z,9.00
2023-04-19T08:37:14.133Z,9.00
2023-04-19T08:39:41.943Z,9.00
2023-04-19T08:42:18.405Z,9.10
2023-04-19T08:47:32.294Z,9.20
2023-04-19T08:50:10.964Z,9.20
2023-04-19T08:52:55.973Z,9.30
2023-04-19T08:55:26.838Z,9.40
2023-04-19T08:57:54.643Z,9.30
2023-04-19T09:00:22.996Z,9.20
2023-04-19T09:02:52.809Z,9.00
2023-04-19T09:05:21.167Z,9.00
2023-04-19T09:07:49.301Z,8.90
2023-04-19T09:10:17.842Z,8.80
2023-04-19T09:13:00.221Z,9.00
2023-04-19T09:15:36.925Z,9.00
2023-04-19T09:18:10.458Z,9.00
2023-04-19T09:20:38.967Z,9.00
2023-04-19T09:23:07.383Z,9.00
2023-04-19T09:25:52.848Z,8.90
2023-04-19T09:28:23.498Z,8.70
2023-04-19T09:33:34.272Z,8.60
2023-04-19T09:36:02.310Z,8.50
2023-04-19T09:38:30.178Z,8.60
2023-04-19T09:41:07.926Z,8.70
2023-04-19T09:44:00.817Z,8.70
2023-04-19T09:46:33.676Z,8.80
2023-04-19T09:49:41.601Z,8.80
2023-04-19T09:52:15.540Z,9.60
2023-04-19T09:54:43.379Z,10.10
2023-04-19T09:57:11.505Z,9.30
2023-04-19T09:59:39.326Z,9.30
2023-04-19T10:02:07.280Z,9.10
2023-04-19T10:04:54.696Z,9.10
2023-04-19T10:07:30.817Z,9.30
2023-04-19T10:10:11.766Z,9.10
2023-04-19T10:12:59.068Z,9.20
2023-04-19T10:15:49.334Z,9.30
2023-04-19T10:18:20.209Z,9.20
2023-04-19T10:20:52.989Z,9.30
2023-04-19T10:23:23.695Z,9.20
2023-04-19T10:25:56.734Z,9.00
2023-04-19T10:28:24.570Z,8.90
2023-04-19T10:30:55.886Z,9.00
2023-04-19T10:33:27.775Z,9.00
2023-04-19T10:35:58.721Z,8.90
2023-04-19T10:38:39.728Z,9.00
2023-04-19T10:41:14.578Z,9.10
2023-04-19T10:43:46.127Z,9.00
2023-04-19T10:46:18.322Z,9.00
2023-04-19T10:48:54.513Z,8.90
2023-04-19T10:51:24.636Z,8.90
2023-04-19T10:53:54.085Z,8.90
2023-04-19T10:56:23.464Z,8.80
2023-04-19T10:59:15.002Z,8.80
2023-04-19T11:01:43.865Z,8.60
2023-04-19T11:04:12.508Z,8.70
2023-04-19T11:07:00.440Z,8.70
2023-04-19T11:09:30.105Z,8.90
2023-04-19T11:11:59.805Z,8.80
2023-04-19T11:14:27.731Z,8.80
2023-04-19T11:16:55.690Z,8.90
2023-04-19T11:19:23.650Z,8.90
2023-04-19T11:21:52.908Z,8.90
2023-04-19T11:24:21.055Z,9.10
2023-04-19T11:26:49.136Z,8.90
2023-04-19T11:29:17.503Z,9.00
2023-04-19T11:31:46.286Z,9.00
2023-04-19T11:34:14.720Z,9.00
2023-04-19T11:36:50.231Z,8.90
2023-04-19T11:39:19.376Z,9.00
2023-04-19T11:41:48.166Z,9.00
2023-04-19T11:44:16.537Z,9.00
2023-04-19T11:46:44.841Z,9.10
2023-04-19T11:49:12.662Z,9.10
2023-04-19T11:51:43.509Z,9.00
2023-04-19T11:54:16.786Z,9.00
2023-04-19T11:57:03.610Z,8.80
2023-04-19T11:59:32.203Z,8.60
2023-04-19T12:02:09.364Z,8.60
2023-04-19T12:04:37.573Z,8.70
2023-04-19T12:07:06.761Z,8.90
2023-04-19T12:09:35.756Z,8.80
2023-04-19T12:12:05.332Z,8.70
2023-04-19T12:14:33.312Z,8.70
2023-04-19T12:17:09.167Z,8.80
2023-04-19T12:19:38.025Z,8.70
2023-04-19T12:22:15.690Z,8.70
2023-04-19T12:24:43.757Z,8.60
2023-04-19T12:27:12.960Z,8.60
2023-04-19T12:29:40.830Z,8.60
2023-04-19T12:32:08.671Z,8.80
2023-04-19T12:34:36.524Z,8.90
2023-04-19T12:37:04.684Z,9.00
2023-04-19T12:39:32.543Z,9.10
2023-04-19T12:42:01.265Z,9.00
2023-04-19T12:44:30.502Z,9.00
2023-04-19T12:46:58.382Z,9.10
2023-04-19T12:49:26.300Z,9.00
2023-04-19T12:51:55.825Z,9.10
2023-04-19T12:54:25.026Z,9.10
2023-04-19T12:56:53.220Z,9.20
2023-04-19T12:59:22.075Z,9.20
2023-04-19T13:01:51.345Z,9.20
2023-04-19T13:04:19.590Z,9.20
2023-04-19T13:06:47.827Z,9.30
2023-04-19T13:09:15.940Z,9.20
2023-04-19T13:11:43.827Z,9.20
2023-04-19T13:14:11.618Z,9.10
2023-04-19T13:16:39.418Z,9.30
2023-04-19T13:19:08.679Z,9.30
2023-04-19T13:21:36.674Z,9.40
2023-04-19T13:24:04.541Z,9.40
2023-04-19T13:26:34.154Z,9.40
2023-04-19T13:29:02.161Z,9.20
2023-04-19T13:31:30.631Z,9.20
2023-04-19T13:34:00.538Z,9.30
2023-04-19T13:36:29.736Z,9.40
2023-04-19T13:38:57.562Z,9.40
2023-04-19T13:41:25.382Z,9.40
2023-04-19T13:43:53.220Z,9.30
2023-04-19T13:46:21.022Z,9.30
2023-04-19T13:48:48.882Z,9.30
2023-04-19T13:51:16.703Z,9.20
2023-04-19T13:53:46.270Z,9.20
2023-04-19T13:56:15.104Z,9.20
2023-04-19T13:58:42.941Z,9.20
2023-04-19T14:01:10.789Z,9.10
2023-04-19T14:03:38.820Z,9.10
2023-04-19T14:06:07.009Z,9.10
2023-04-19T14:08:34.825Z,9.20
2023-04-19T14:11:04.089Z,9.30
2023-04-19T14:13:31.879Z,9.10
2023-04-19T14:15:59.687Z,9.00
2023-04-19T14:18:27.504Z,8.70
2023-04-19T14:20:55.794Z,8.70
2023-04-19T14:23:23.610Z,8.70
2023-04-19T14:25:51.411Z,8.70
2023-04-19T14:28:20.607Z,8.70
2023-04-19T14:30:48.416Z,8.60
2023-04-19T14:33:16.199Z,8.60
2023-04-19T14:35:44.040Z,8.60
2023-04-19T14:38:12.703Z,8.40
2023-04-19T14:40:40.723Z,8.50
2023-04-19T14:43:08.639Z,8.50
2023-04-19T14:45:37.800Z,8.50
2023-04-19T14:48:06.282Z,8.60
2023-04-19T14:50:34.166Z,8.50
2023-04-19T14:53:01.942Z,8.50
2023-04-19T14:55:29.806Z,8.40
2023-04-19T14:57:57.678Z,8.50
2023-04-19T15:00:25.773Z,8.50
2023-04-19T15:02:54.995Z,8.30
2023-04-19T15:05:23.900Z,8.40
2023-04-19T15:07:51.857Z,8.40
2023-04-19T15:10:19.700Z,8.50
2023-04-19T15:12:47.523Z,8.40
2023-04-19T15:15:15.360Z,8.20
2023-04-19T15:17:43.884Z,8.20
2023-04-19T15:20:13.527Z,8.20
2023-04-19T15:22:41.332Z,8.20
2023-04-19T15:25:09.863Z,8.20
2023-04-19T15:27:37.646Z,8.20
2023-04-19T15:30:05.991Z,8.30
2023-04-19T15:32:36.526Z,8.30
2023-04-19T15:35:04.751Z,8.20
2023-04-19T15:37:33.907Z,8.10
2023-04-19T15:40:01.784Z,8.00
2023-04-19T15:42:29.619Z,8.10
2023-04-19T15:44:57.508Z,8.00
2023-04-19T15:47:25.355Z,8.00
2023-04-19T15:49:54.173Z,8.00
2023-04-19T15:52:22.020Z,7.80
2023-04-19T15:54:51.983Z,7.70
2023-04-19T15:57:19.792Z,7.40
2023-04-19T15:59:47.743Z,7.20
2023-04-19T16:02:15.755Z,7.60
2023-04-19T16:04:43.759Z,7.40
2023-04-19T16:07:11.862Z,7.40
2023-04-19T16:09:39.638Z,7.40
2023-04-19T16:12:08.948Z,7.40
2023-04-19T16:14:37.327Z,7.50
2023-04-19T16:17:05.295Z,7.40
2023-04-19T16:19:33.115Z,7.20
2023-04-19T16:22:02.054Z,7.20
2023-04-19T16:24:30.000Z,7.30
2023-04-19T16:26:58.084Z,7.30
2023-04-19T16:29:27.542Z,7.20
2023-04-19T16:31:55.515Z,7.20
2023-04-19T16:34:25.375Z,7.30
2023-04-19T16:36:53.736Z,7.40
2023-04-19T16:39:21.546Z,7.30
2023-04-19T16:41:49.526Z,7.20
2023-04-19T16:44:17.366Z,7.10
2023-04-19T16:46:46.528Z,7.00
2023-04-19T16:49:14.483Z,6.70
2023-04-19T16:51:42.392Z,6.70
2023-04-19T16:54:10.232Z,6.60
2023-04-19T16:56:38.056Z,6.30
2023-04-19T16:59:05.871Z,6.30
2023-04-19T17:01:33.837Z,6.30
2023-04-19T17:04:03.241Z,6.20
2023-04-19T17:06:31.987Z,6.10
2023-04-19T17:08:59.953Z,6.20
2023-04-19T17:11:30.951Z,6.20
2023-04-19T17:14:00.190Z,6.10
2023-04-19T17:16:28.164Z,6.10
2023-04-19T17:18:56.761Z,5.90
2023-04-19T17:21:26.086Z,5.80
2023-04-19T17:23:53.932Z,5.70
2023-04-19T17:26:22.035Z,5.80
2023-04-19T17:28:49.940Z,5.60
2023-04-19T17:31:17.814Z,5.90
2023-04-19T17:33:45.941Z,5.80
2023-04-19T17:36:13.804Z,5.80
2023-04-19T17:38:43.050Z,5.90
2023-04-19T17:41:16.049Z,5.90
2023-04-19T17:43:43.899Z,5.80
2023-04-19T17:46:11.960Z,5.80
2023-04-19T17:48:39.962Z,5.80
2023-04-19T17:51:08.032Z,5.70
2023-04-19T17:53:35.879Z,5.80
2023-04-19T17:56:05.359Z,5.90
2023-04-19T17:58:35.037Z,5.90
2023-04-19T18:01:03.316Z,5.40
2023-04-19T18:03:31.674Z,5.50
2023-04-19T18:05:59.682Z,5.60
2023-04-19T18:08:27.576Z,5.50
2023-04-19T18:10:55.408Z,5.70
2023-04-19T18:13:24.607Z,5.70
2023-04-19T18:15:52.469Z,5.60
2023-04-19T18:18:20.324Z,5.40
2023-04-19T18:20:48.130Z,5.30
2023-04-19T18:23:15.964Z,5.30
2023-04-19T18:25:43.836Z,5.40
2023-04-19T18:28:11.684Z,5.40
2023-04-19T18:30:41.039Z,5.30
2023-04-19T18:33:08.958Z,5.30
2023-04-19T18:35:37.096Z,5.20
2023-04-19T18:38:04.957Z,5.30
2023-04-19T18:40:32.823Z,5.30
2023-04-19T18:43:00.696Z,5.30
2023-04-19T18:45:28.909Z,5.30
2023-04-19T18:47:58.123Z,5.20
2023-04-19T18:50:26.067Z,5.10
2023-04-19T18:52:53.886Z,5.10
2023-04-19T18:55:21.716Z,5.10
2023-04-19T18:57:49.528Z,4.90
2023-04-19T19:00:19.832Z,4.80
2023-04-19T19:02:47.804Z,4.90
2023-04-19T19:05:17.196Z,4.50
2023-04-19T19:07:45.339Z,4.60
2023-04-19T19:10:19.442Z,4.70
2023-04-19T19:12:49.596Z,4.70
2023-04-19T19:15:17.821Z,4.70
2023-04-19T19:17:49.300Z,4.70
2023-04-19T19:20:21.640Z,4.60
2023-04-19T19:22:49.513Z,4.80
2023-04-19T19:25:17.427Z,4.90
2023-04-19T19:28:02.846Z,4.80
2023-04-19T19:30:34.570Z,4.80
2023-04-19T19:33:02.927Z,4.70
2023-04-19T19:35:32.268Z,4.70
2023-04-19T19:38:00.213Z,4.70
2023-04-19T19:40:31.065Z,4.70
2023-04-19T19:43:00.616Z,4.80
2023-04-19T19:45:28.916Z,4.90
2023-04-19T19:47:58.846Z,5.20
2023-04-19T19:51:05.071Z,5.20
2023-04-19T19:53:16.854Z,5.00
2023-04-19T19:55:44.855Z,4.80
2023-04-19T19:58:45.825Z,4.80
2023-04-19T20:01:03.732Z,4.80
2023-04-19T20:03:37.501Z,4.70
2023-04-19T20:08:42.737Z,4.80
2023-04-19T20:11:11.962Z,5.00
2023-04-19T20:13:39.815Z,4.90
2023-04-19T20:16:09.910Z,4.90
2023-04-19T20:18:39.125Z,4.80
2023-04-19T20:21:07.772Z,4.70
2023-04-19T20:23:38.302Z,4.70
2023-04-19T20:26:07.516Z,4.90
2023-04-19T20:28:35.407Z,4.70
2023-04-19T20:31:03.210Z,4.70
2023-04-19T20:33:31.067Z,4.60
2023-04-19T20:35:59.743Z,4.50
2023-04-19T20:38:27.605Z,4.60
2023-04-19T20:40:56.034Z,4.70
2023-04-19T20:43:25.425Z,4.50
2023-04-19T20:45:53.268Z,4.60
2023-04-19T20:48:21.146Z,4.60
2023-04-19T20:50:48.984Z,4.70
2023-04-19T20:53:16.835Z,4.60
2023-04-19T20:55:44.745Z,4.70
2023-04-19T20:58:12.706Z,4.60
2023-04-19T21:00:41.877Z,4.60
2023-04-19T21:03:09.816Z,4.60
2023-04-19T21:05:37.784Z,4.60
2023-04-19T21:08:05.916Z,4.60
2023-04-19T21:10:33.743Z,4.70
2023-04-19T21:13:01.614Z,4.60
2023-04-19T21:15:29.435Z,4.60
2023-04-19T21:17:58.733Z,4.60
2023-04-19T21:20:26.872Z,4.60
2023-04-19T21:22:54.713Z,4.50
2023-04-19T21:25:22.689Z,4.60
2023-04-19T21:27:50.510Z,4.60
2023-04-19T21:30:18.337Z,4.60
2023-04-19T21:32:46.201Z,4.60
2023-04-19T21:35:15.449Z,4.60
2023-04-19T21:37:43.316Z,4.50
2023-04-19T21:40:11.655Z,4.60
2023-04-19T21:42:39.544Z,4.50
2023-04-19T21:45:08.991Z,4.50
2023-04-19T21:47:36.867Z,4.50
2023-04-19T21:50:04.985Z,4.50
2023-04-19T21:52:34.033Z,4.60
2023-04-19T21:55:01.839Z,4.50
2023-04-19T21:57:30.853Z,4.40
2023-04-19T21:59:58.633Z,4.40
2023-04-19T22:02:26.661Z,4.30
2023-04-19T22:04:54.866Z,4.40
2023-04-19T22:07:23.861Z,4.30
2023-04-19T22:09:54.294Z,4.20
2023-04-19T22:12:22.182Z,4.20
2023-04-19T22:14:50.097Z,4.20
2023-04-19T22:17:19.121Z,4.20
2023-04-19T22:19:47.633Z,4.20
2023-04-19T22:22:15.550Z,4.20
2023-04-19T22:24:56.829Z,4.20
2023-04-19T22:27:26.898Z,4.20
2023-04-19T22:29:54.766Z,4.10
2023-04-19T22:32:22.733Z,4.70
2023-04-19T22:34:50.726Z,4.60
2023-04-19T22:37:18.489Z,5.20
2023-04-19T22:39:46.266Z,4.80
2023-04-19T22:42:14.044Z,4.50
2023-04-19T22:44:43.149Z,4.60
2023-04-19T22:47:11.779Z,4.60
2023-04-19T22:49:43.035Z,4.50
2023-04-19T22:52:11.388Z,4.50
2023-04-19T22:54:39.162Z,4.50
2023-04-19T22:57:06.938Z,4.50
2023-04-19T22:59:34.691Z,4.50
2023-04-19T23:02:04.320Z,4.50
2023-04-19T23:04:35.010Z,4.50
2023-04-19T23:07:03.808Z,4.50
2023-04-19T23:09:31.586Z,4.30
2023-04-19T23:12:00.472Z,4.30
2023-04-19T23:14:28.375Z,4.30
2023-04-19T23:16:57.104Z,4.40
2023-04-19T23:19:26.319Z,4.40
2023-04-19T23:21:54.133Z,4.30
2023-04-19T23:24:21.901Z,4.30
2023-04-19T23:26:49.717Z,4.40
2023-04-19T23:29:17.701Z,4.50
2023-04-19T23:31:45.800Z,4.40
2023-04-19T23:34:13.993Z,4.50
2023-04-19T23:36:45.114Z,4.40
2023-04-19T23:39:12.955Z,4.40
2023-04-19T23:41:40.863Z,4.30
2023-04-19T23:44:08.648Z,4.30
2023-04-19T23:46:36.528Z,4.40
2023-04-19T23:49:04.352Z,4.30
2023-04-19T23:51:32.837Z,4.30
2023-04-19T23:54:01.967Z,4.30
2023-04-19T23:56:29.754Z,4.30
2023-04-19T23:58:57.586Z,4.20
